Aérodrome :
LOGIN :

S'inscrire | Disclaimer

   EN    FR    IT 

 










Légende :    VFR   VFR Marginal   IFR   IFR Intensif   IFR Très Intensif
Visi : 
Plafond : 
>= 8 km
>= 3000ft
5 à 8 km
1000 à 3000 ft
1500m à 5 km
500 à 1000 ft
800 à 1500m
200 à 500 ft
< 800m
< 200 ft
Symboles :   Orages  Brouillard  Fortes neiges  Fortes précipitations  Vent > 20 kt
SIGMETs :   Divers  Orages  Givrage  Turbulence  Onde Orograph.  Cendres Volcan.







- Altitude de l'aérodrome : 2425 ft


ETHA - Altenstadt Army

DERNIER METAR :
  • 220520Z 25019KT 9999 BKN028 BKN060 07/05 Q1015 BLACKBLU BLU TEMPO GRN

METARs EXPIRÉS :
  • 220439Z 25020KT 9999 -RA BKN012 BKN040 07/06 Q1016 BLACKGRN
  • 220420Z 25021KT 9999 SCT015 BKN040 BKN110 07/06 Q1015 BLACKBLU
  • 220320Z AUTO 26021KT //// // ////// 07/06 Q1016 ///

TAF TAF ETHA
Valide du 22 à 06h jusqu'au 22 à 15h UTC


220520Z 2206/2215 27020G35KT 9999 NSW SCT012 BKN050
TEMPO 2206/2210 28015G30KT 7000 -RA BKN010 OVC040
BECMG 2210/2212 28025G40KT 9999 NSW SCT020 BKN050
Pas de NOTAMs connus pour ce terrain.



MET'MAP, la Météo Aéronautique d'un coup d'oeil ! - Copyright ORBIFLY Décembre 2007 - Disclaimer

ORBIFLY MET'MAP TEAM :

Programmation & Développement : Alexandra Zaïnal
Conception & Développement : Baudouin d'Aumeries
Co-Programmation & Développement : Marc-Olivier Méhu
Soutien technique & logistique : Manuel Goepfert

Contact : metmap@orbifly.com




SOURCES & CREDITS :

   NOAA